sensor_id;sensor_type;location;lat;lon;timestamp;temperature;humidity
15630;DHT22;7914;50.842;0.166;2022-07-18T00:02:00;18.60;1.00
15630;DHT22;7914;50.842;0.166;2022-07-18T00:04:28;18.70;1.00
15630;DHT22;7914;50.842;0.166;2022-07-18T00:06:54;18.90;1.00
15630;DHT22;7914;50.842;0.166;2022-07-18T00:09:20;19.00;1.00
15630;DHT22;7914;50.842;0.166;2022-07-18T00:11:48;19.00;1.00
15630;DHT22;7914;50.842;0.166;2022-07-18T00:14:14;19.00;1.00
15630;DHT22;7914;50.842;0.166;2022-07-18T00:16:39;19.10;1.00
15630;DHT22;7914;50.842;0.166;2022-07-18T00:19:06;19.10;1.00
15630;DHT22;7914;50.842;0.166;2022-07-18T00:21:32;19.20;6.90
15630;DHT22;7914;50.842;0.166;2022-07-18T00:23:58;19.30;1.00
15630;DHT22;7914;50.842;0.166;2022-07-18T00:26:24;19.40;1.00
15630;DHT22;7914;50.842;0.166;2022-07-18T00:28:50;19.40;10.80
15630;DHT22;7914;50.842;0.166;2022-07-18T00:31:15;19.30;44.70
15630;DHT22;7914;50.842;0.166;2022-07-18T00:33:41;19.30;35.50
15630;DHT22;7914;50.842;0.166;2022-07-18T00:36:07;19.30;22.60
15630;DHT22;7914;50.842;0.166;2022-07-18T00:38:33;19.40;5.70
15630;DHT22;7914;50.842;0.166;2022-07-18T00:40:59;19.40;1.00
15630;DHT22;7914;50.842;0.166;2022-07-18T00:43:25;19.40;1.00
15630;DHT22;7914;50.842;0.166;2022-07-18T00:45:51;19.40;1.00
15630;DHT22;7914;50.842;0.166;2022-07-18T00:48:18;19.40;1.00
15630;DHT22;7914;50.842;0.166;2022-07-18T00:50:44;19.40;1.00
15630;DHT22;7914;50.842;0.166;2022-07-18T00:53:10;19.30;1.00
15630;DHT22;7914;50.842;0.166;2022-07-18T00:55:44;19.40;1.00
15630;DHT22;7914;50.842;0.166;2022-07-18T00:58:12;19.50;1.00
15630;DHT22;7914;50.842;0.166;2022-07-18T01:00:38;19.60;1.00
15630;DHT22;7914;50.842;0.166;2022-07-18T01:03:23;19.50;1.00
15630;DHT22;7914;50.842;0.166;2022-07-18T01:05:49;19.50;1.00
15630;DHT22;7914;50.842;0.166;2022-07-18T01:08:15;19.50;1.00
15630;DHT22;7914;50.842;0.166;2022-07-18T01:10:41;19.40;1.00
15630;DHT22;7914;50.842;0.166;2022-07-18T01:13:07;19.30;1.00
15630;DHT22;7914;50.842;0.166;2022-07-18T01:15:32;19.30;1.00
15630;DHT22;7914;50.842;0.166;2022-07-18T01:17:58;19.20;1.00
15630;DHT22;7914;50.842;0.166;2022-07-18T01:20:29;19.10;1.00
15630;DHT22;7914;50.842;0.166;2022-07-18T01:22:56;19.20;1.00
15630;DHT22;7914;50.842;0.166;2022-07-18T01:25:22;19.30;1.00
15630;DHT22;7914;50.842;0.166;2022-07-18T01:27:47;19.30;1.00
15630;DHT22;7914;50.842;0.166;2022-07-18T01:30:13;19.50;1.00
15630;DHT22;7914;50.842;0.166;2022-07-18T01:32:41;19.50;1.00
15630;DHT22;7914;50.842;0.166;2022-07-18T01:35:07;19.50;1.00
15630;DHT22;7914;50.842;0.166;2022-07-18T01:37:33;19.40;1.00
15630;DHT22;7914;50.842;0.166;2022-07-18T01:39:59;19.40;1.00
15630;DHT22;7914;50.842;0.166;2022-07-18T01:42:25;19.40;1.00
15630;DHT22;7914;50.842;0.166;2022-07-18T01:44:50;19.40;1.00
15630;DHT22;7914;50.842;0.166;2022-07-18T01:47:16;19.40;1.00
15630;DHT22;7914;50.842;0.166;2022-07-18T01:49:42;19.30;1.00
15630;DHT22;7914;50.842;0.166;2022-07-18T01:52:09;19.30;1.00
15630;DHT22;7914;50.842;0.166;2022-07-18T01:54:35;19.30;1.00
15630;DHT22;7914;50.842;0.166;2022-07-18T01:57:04;19.20;1.00
15630;DHT22;7914;50.842;0.166;2022-07-18T01:59:30;19.20;1.00
15630;DHT22;7914;50.842;0.166;2022-07-18T02:01:56;19.20;1.00
15630;DHT22;7914;50.842;0.166;2022-07-18T02:04:21;19.20;1.00
15630;DHT22;7914;50.842;0.166;2022-07-18T02:07:10;19.20;1.00
15630;DHT22;7914;50.842;0.166;2022-07-18T02:09:36;19.20;1.00
15630;DHT22;7914;50.842;0.166;2022-07-18T02:12:02;19.20;1.00
15630;DHT22;7914;50.842;0.166;2022-07-18T02:14:28;19.20;1.00
15630;DHT22;7914;50.842;0.166;2022-07-18T02:16:54;19.20;1.00
15630;DHT22;7914;50.842;0.166;2022-07-18T02:19:20;19.20;1.00
15630;DHT22;7914;50.842;0.166;2022-07-18T02:21:46;19.20;1.00
15630;DHT22;7914;50.842;0.166;2022-07-18T02:24:11;19.30;1.00
15630;DHT22;7914;50.842;0.166;2022-07-18T02:26:37;19.30;1.00
15630;DHT22;7914;50.842;0.166;2022-07-18T02:29:03;19.30;1.00
15630;DHT22;7914;50.842;0.166;2022-07-18T02:31:28;19.20;1.00
15630;DHT22;7914;50.842;0.166;2022-07-18T02:33:54;19.20;7.70
15630;DHT22;7914;50.842;0.166;2022-07-18T02:36:20;19.00;43.20
15630;DHT22;7914;50.842;0.166;2022-07-18T02:38:46;19.00;64.30
15630;DHT22;7914;50.842;0.166;2022-07-18T02:41:11;18.80;98.10
15630;DHT22;7914;50.842;0.166;2022-07-18T02:43:37;18.80;99.90
15630;DHT22;7914;50.842;0.166;2022-07-18T02:46:03;18.80;95.70
15630;DHT22;7914;50.842;0.166;2022-07-18T02:48:29;18.80;95.90
15630;DHT22;7914;50.842;0.166;2022-07-18T02:50:54;18.80;95.00
15630;DHT22;7914;50.842;0.166;2022-07-18T02:53:21;18.70;98.60
15630;DHT22;7914;50.842;0.166;2022-07-18T02:55:49;18.70;97.80
15630;DHT22;7914;50.842;0.166;2022-07-18T02:58:16;18.80;98.00
15630;DHT22;7914;50.842;0.166;2022-07-18T03:00:42;18.70;99.90
15630;DHT22;7914;50.842;0.166;2022-07-18T03:03:08;18.70;99.90
15630;DHT22;7914;50.842;0.166;2022-07-18T03:05:33;18.70;99.90
15630;DHT22;7914;50.842;0.166;2022-07-18T03:07:59;18.70;99.90
15630;DHT22;7914;50.842;0.166;2022-07-18T03:10:25;18.70;99.90
15630;DHT22;7914;50.842;0.166;2022-07-18T03:12:51;18.80;99.90
15630;DHT22;7914;50.842;0.166;2022-07-18T03:15:16;18.90;99.90
15630;DHT22;7914;50.842;0.166;2022-07-18T03:17:42;18.90;99.90
15630;DHT22;7914;50.842;0.166;2022-07-18T03:20:08;18.90;99.90
15630;DHT22;7914;50.842;0.166;2022-07-18T03:22:34;18.90;99.90
15630;DHT22;7914;50.842;0.166;2022-07-18T03:25:00;18.90;99.90
15630;DHT22;7914;50.842;0.166;2022-07-18T03:27:26;18.90;99.90
15630;DHT22;7914;50.842;0.166;2022-07-18T03:29:51;18.80;99.90
15630;DHT22;7914;50.842;0.166;2022-07-18T03:32:17;18.80;99.90
15630;DHT22;7914;50.842;0.166;2022-07-18T03:34:43;18.90;99.90
15630;DHT22;7914;50.842;0.166;2022-07-18T03:37:09;19.00;99.90
15630;DHT22;7914;50.842;0.166;2022-07-18T03:39:34;18.80;99.90
15630;DHT22;7914;50.842;0.166;2022-07-18T03:42:00;18.80;99.90
15630;DHT22;7914;50.842;0.166;2022-07-18T03:44:26;18.70;99.90
15630;DHT22;7914;50.842;0.166;2022-07-18T03:46:51;18.60;99.90
15630;DHT22;7914;50.842;0.166;2022-07-18T03:49:19;18.60;99.90
15630;DHT22;7914;50.842;0.166;2022-07-18T03:51:45;18.70;99.90
15630;DHT22;7914;50.842;0.166;2022-07-18T03:54:11;18.60;99.90
15630;DHT22;7914;50.842;0.166;2022-07-18T03:56:37;18.40;99.90
15630;DHT22;7914;50.842;0.166;2022-07-18T03:59:03;18.40;99.90
15630;DHT22;7914;50.842;0.166;2022-07-18T04:01:29;18.30;99.90
15630;DHT22;7914;50.842;0.166;2022-07-18T04:03:55;18.30;99.90
15630;DHT22;7914;50.842;0.166;2022-07-18T04:06:21;18.30;99.90
15630;DHT22;7914;50.842;0.166;2022-07-18T04:08:46;18.20;99.90
15630;DHT22;7914;50.842;0.166;2022-07-18T04:11:12;18.30;99.90
15630;DHT22;7914;50.842;0.166;2022-07-18T04:13:38;18.30;99.90
15630;DHT22;7914;50.842;0.166;2022-07-18T04:16:04;18.30;99.90
15630;DHT22;7914;50.842;0.166;2022-07-18T04:18:30;18.20;99.90
15630;DHT22;7914;50.842;0.166;2022-07-18T04:20:55;18.20;99.90
15630;DHT22;7914;50.842;0.166;2022-07-18T04:23:21;18.30;99.90
15630;DHT22;7914;50.842;0.166;2022-07-18T04:25:47;18.20;99.90
15630;DHT22;7914;50.842;0.166;2022-07-18T04:28:13;18.20;99.90
15630;DHT22;7914;50.842;0.166;2022-07-18T04:30:40;18.30;99.90
15630;DHT22;7914;50.842;0.166;2022-07-18T04:33:08;18.20;99.90
15630;DHT22;7914;50.842;0.166;2022-07-18T04:35:34;18.30;99.90
15630;DHT22;7914;50.842;0.166;2022-07-18T04:38:06;18.30;99.90
15630;DHT22;7914;50.842;0.166;2022-07-18T04:40:33;18.30;99.90
15630;DHT22;7914;50.842;0.166;2022-07-18T04:42:59;18.40;99.90
15630;DHT22;7914;50.842;0.166;2022-07-18T04:45:25;18.50;99.90
15630;DHT22;7914;50.842;0.166;2022-07-18T04:47:51;18.60;99.90
15630;DHT22;7914;50.842;0.166;2022-07-18T04:50:17;18.60;99.90
15630;DHT22;7914;50.842;0.166;2022-07-18T04:52:45;18.70;99.90
15630;DHT22;7914;50.842;0.166;2022-07-18T04:55:12;18.80;99.90
15630;DHT22;7914;50.842;0.166;2022-07-18T04:57:38;18.90;99.90
15630;DHT22;7914;50.842;0.166;2022-07-18T05:00:24;18.90;99.90
15630;DHT22;7914;50.842;0.166;2022-07-18T05:02:52;19.00;99.90
15630;DHT22;7914;50.842;0.166;2022-07-18T05:05:19;18.90;99.90
15630;DHT22;7914;50.842;0.166;2022-07-18T05:07:46;18.90;99.90
15630;DHT22;7914;50.842;0.166;2022-07-18T05:10:13;19.00;99.90
15630;DHT22;7914;50.842;0.166;2022-07-18T05:12:42;19.10;99.90
15630;DHT22;7914;50.842;0.166;2022-07-18T05:15:10;19.10;99.90
15630;DHT22;7914;50.842;0.166;2022-07-18T05:17:36;19.20;99.90
15630;DHT22;7914;50.842;0.166;2022-07-18T05:20:06;19.20;99.90
15630;DHT22;7914;50.842;0.166;2022-07-18T05:22:33;19.20;99.90
15630;DHT22;7914;50.842;0.166;2022-07-18T05:25:00;19.40;99.90
15630;DHT22;7914;50.842;0.166;2022-07-18T05:27:26;19.60;99.90
15630;DHT22;7914;50.842;0.166;2022-07-18T05:29:52;20.10;99.90
15630;DHT22;7914;50.842;0.166;2022-07-18T05:32:17;20.10;99.90
15630;DHT22;7914;50.842;0.166;2022-07-18T05:34:43;20.30;99.90
15630;DHT22;7914;50.842;0.166;2022-07-18T05:37:09;20.30;99.90
15630;DHT22;7914;50.842;0.166;2022-07-18T05:39:35;20.50;99.90
15630;DHT22;7914;50.842;0.166;2022-07-18T05:42:02;20.60;93.70
15630;DHT22;7914;50.842;0.166;2022-07-18T05:44:28;20.40;99.90
15630;DHT22;7914;50.842;0.166;2022-07-18T05:46:53;20.40;99.90
15630;DHT22;7914;50.842;0.166;2022-07-18T05:49:19;20.60;99.90
15630;DHT22;7914;50.842;0.166;2022-07-18T05:51:45;21.10;99.90
15630;DHT22;7914;50.842;0.166;2022-07-18T05:54:11;22.00;76.70
15630;DHT22;7914;50.842;0.166;2022-07-18T05:56:37;22.50;40.10
15630;DHT22;7914;50.842;0.166;2022-07-18T05:59:02;22.60;34.60
15630;DHT22;7914;50.842;0.166;2022-07-18T06:01:29;22.90;40.70
15630;DHT22;7914;50.842;0.166;2022-07-18T06:03:55;23.20;24.20
15630;DHT22;7914;50.842;0.166;2022-07-18T06:06:21;22.80;29.90
15630;DHT22;7914;50.842;0.166;2022-07-18T06:08:47;22.40;42.90
15630;DHT22;7914;50.842;0.166;2022-07-18T06:11:12;22.00;72.30
15630;DHT22;7914;50.842;0.166;2022-07-18T06:13:39;21.80;76.30
15630;DHT22;7914;50.842;0.166;2022-07-18T06:16:06;21.70;95.60
15630;DHT22;7914;50.842;0.166;2022-07-18T06:18:33;21.50;99.90
15630;DHT22;7914;50.842;0.166;2022-07-18T06:21:03;21.50;99.90
15630;DHT22;7914;50.842;0.166;2022-07-18T06:23:30;21.50;99.90
15630;DHT22;7914;50.842;0.166;2022-07-18T06:25:59;21.60;99.90
15630;DHT22;7914;50.842;0.166;2022-07-18T06:28:25;21.60;99.90
15630;DHT22;7914;50.842;0.166;2022-07-18T06:30:57;21.70;99.90
15630;DHT22;7914;50.842;0.166;2022-07-18T06:33:23;22.10;99.90
15630;DHT22;7914;50.842;0.166;2022-07-18T06:35:49;22.50;95.40
15630;DHT22;7914;50.842;0.166;2022-07-18T06:38:15;22.80;89.80
15630;DHT22;7914;50.842;0.166;2022-07-18T06:40:42;23.00;75.90
15630;DHT22;7914;50.842;0.166;2022-07-18T06:43:08;23.10;60.00
15630;DHT22;7914;50.842;0.166;2022-07-18T06:45:34;23.20;38.60
15630;DHT22;7914;50.842;0.166;2022-07-18T06:48:00;23.10;40.80
15630;DHT22;7914;50.842;0.166;2022-07-18T06:50:26;23.10;44.20
15630;DHT22;7914;50.842;0.166;2022-07-18T06:52:51;23.50;39.60
15630;DHT22;7914;50.842;0.166;2022-07-18T06:55:17;23.20;28.70
15630;DHT22;7914;50.842;0.166;2022-07-18T06:57:43;23.00;44.00
15630;DHT22;7914;50.842;0.166;2022-07-18T07:00:11;23.60;33.70
15630;DHT22;7914;50.842;0.166;2022-07-18T07:02:46;24.00;1.10
15630;DHT22;7914;50.842;0.166;2022-07-18T07:05:14;24.40;1.00
15630;DHT22;7914;50.842;0.166;2022-07-18T07:07:41;24.20;1.00
15630;DHT22;7914;50.842;0.166;2022-07-18T07:10:08;24.40;1.00
15630;DHT22;7914;50.842;0.166;2022-07-18T07:12:41;24.90;1.00
15630;DHT22;7914;50.842;0.166;2022-07-18T07:15:08;25.00;1.00
15630;DHT22;7914;50.842;0.166;2022-07-18T07:17:34;25.40;1.00
15630;DHT22;7914;50.842;0.166;2022-07-18T07:20:00;25.20;1.00
15630;DHT22;7914;50.842;0.166;2022-07-18T07:22:26;25.60;1.00
15630;DHT22;7914;50.842;0.166;2022-07-18T07:24:52;25.70;1.00
15630;DHT22;7914;50.842;0.166;2022-07-18T07:27:17;25.90;1.00
15630;DHT22;7914;50.842;0.166;2022-07-18T07:29:43;26.20;1.00
15630;DHT22;7914;50.842;0.166;2022-07-18T07:32:09;26.50;1.00
15630;DHT22;7914;50.842;0.166;2022-07-18T07:34:34;26.50;1.00
15630;DHT22;7914;50.842;0.166;2022-07-18T07:37:00;26.80;1.00
15630;DHT22;7914;50.842;0.166;2022-07-18T07:39:26;26.70;1.00
15630;DHT22;7914;50.842;0.166;2022-07-18T07:41:52;26.70;1.00
15630;DHT22;7914;50.842;0.166;2022-07-18T07:44:18;26.70;1.00
15630;DHT22;7914;50.842;0.166;2022-07-18T07:46:44;27.00;1.00
15630;DHT22;7914;50.842;0.166;2022-07-18T07:49:10;27.00;1.00
15630;DHT22;7914;50.842;0.166;2022-07-18T07:51:35;27.30;1.00
15630;DHT22;7914;50.842;0.166;2022-07-18T07:54:03;27.40;1.00
15630;DHT22;7914;50.842;0.166;2022-07-18T07:56:31;27.10;1.00
15630;DHT22;7914;50.842;0.166;2022-07-18T07:58:56;27.40;1.00
15630;DHT22;7914;50.842;0.166;2022-07-18T08:01:22;27.80;1.00
15630;DHT22;7914;50.842;0.166;2022-07-18T08:03:48;28.10;1.00
15630;DHT22;7914;50.842;0.166;2022-07-18T08:06:15;28.20;1.00
15630;DHT22;7914;50.842;0.166;2022-07-18T08:08:41;28.10;1.00
15630;DHT22;7914;50.842;0.166;2022-07-18T08:11:07;27.90;1.00
15630;DHT22;7914;50.842;0.166;2022-07-18T08:13:32;28.10;1.00
15630;DHT22;7914;50.842;0.166;2022-07-18T08:15:58;28.20;1.00
15630;DHT22;7914;50.842;0.166;2022-07-18T08:18:24;28.50;1.00
15630;DHT22;7914;50.842;0.166;2022-07-18T08:20:50;28.70;1.00
15630;DHT22;7914;50.842;0.166;2022-07-18T08:23:15;28.90;1.00
15630;DHT22;7914;50.842;0.166;2022-07-18T08:25:45;28.90;1.00
15630;DHT22;7914;50.842;0.166;2022-07-18T08:28:11;28.80;1.00
15630;DHT22;7914;50.842;0.166;2022-07-18T08:30:38;28.50;1.00
15630;DHT22;7914;50.842;0.166;2022-07-18T08:33:05;28.50;1.00
15630;DHT22;7914;50.842;0.166;2022-07-18T08:35:31;28.70;1.00
15630;DHT22;7914;50.842;0.166;2022-07-18T08:37:58;28.90;1.00
15630;DHT22;7914;50.842;0.166;2022-07-18T08:40:24;29.00;1.00
15630;DHT22;7914;50.842;0.166;2022-07-18T08:42:52;28.90;1.00
15630;DHT22;7914;50.842;0.166;2022-07-18T08:45:23;28.80;1.00
15630;DHT22;7914;50.842;0.166;2022-07-18T08:49:13;28.80;1.00
15630;DHT22;7914;50.842;0.166;2022-07-18T08:51:39;28.70;1.00
15630;DHT22;7914;50.842;0.166;2022-07-18T08:54:06;28.60;1.00
15630;DHT22;7914;50.842;0.166;2022-07-18T08:56:32;28.80;1.00
15630;DHT22;7914;50.842;0.166;2022-07-18T08:59:00;29.00;1.00
15630;DHT22;7914;50.842;0.166;2022-07-18T09:01:28;29.20;1.00
15630;DHT22;7914;50.842;0.166;2022-07-18T09:03:54;29.50;1.00
15630;DHT22;7914;50.842;0.166;2022-07-18T09:06:46;29.40;1.00
15630;DHT22;7914;50.842;0.166;2022-07-18T09:09:13;29.40;1.00
15630;DHT22;7914;50.842;0.166;2022-07-18T09:11:53;29.50;1.00
15630;DHT22;7914;50.842;0.166;2022-07-18T09:17:05;29.40;1.00
15630;DHT22;7914;50.842;0.166;2022-07-18T09:19:31;29.60;1.00
15630;DHT22;7914;50.842;0.166;2022-07-18T09:22:20;29.90;1.00
15630;DHT22;7914;50.842;0.166;2022-07-18T09:24:58;30.10;1.00
15630;DHT22;7914;50.842;0.166;2022-07-18T09:27:30;30.30;1.00
15630;DHT22;7914;50.842;0.166;2022-07-18T09:32:38;30.30;1.00
15630;DHT22;7914;50.842;0.166;2022-07-18T09:35:12;30.00;1.00
15630;DHT22;7914;50.842;0.166;2022-07-18T09:37:38;30.30;1.00
15630;DHT22;7914;50.842;0.166;2022-07-18T09:40:29;30.30;1.00
15630;DHT22;7914;50.842;0.166;2022-07-18T09:42:58;30.10;1.00
15630;DHT22;7914;50.842;0.166;2022-07-18T09:46:08;30.10;1.00
15630;DHT22;7914;50.842;0.166;2022-07-18T09:48:23;30.30;1.00
15630;DHT22;7914;50.842;0.166;2022-07-18T09:50:56;30.30;1.00
15630;DHT22;7914;50.842;0.166;2022-07-18T09:53:26;30.50;1.00
15630;DHT22;7914;50.842;0.166;2022-07-18T09:55:53;30.60;1.00
15630;DHT22;7914;50.842;0.166;2022-07-18T09:58:22;30.60;1.00
15630;DHT22;7914;50.842;0.166;2022-07-18T10:00:49;30.50;1.00
15630;DHT22;7914;50.842;0.166;2022-07-18T10:03:16;30.80;1.00
15630;DHT22;7914;50.842;0.166;2022-07-18T10:05:44;30.50;1.00
15630;DHT22;7914;50.842;0.166;2022-07-18T10:08:18;30.40;1.00
15630;DHT22;7914;50.842;0.166;2022-07-18T10:10:47;30.50;1.00
15630;DHT22;7914;50.842;0.166;2022-07-18T10:13:13;30.40;1.00
15630;DHT22;7914;50.842;0.166;2022-07-18T10:15:41;30.70;1.00
15630;DHT22;7914;50.842;0.166;2022-07-18T10:18:09;30.90;1.00
15630;DHT22;7914;50.842;0.166;2022-07-18T10:20:50;30.80;1.00
15630;DHT22;7914;50.842;0.166;2022-07-18T10:23:28;31.00;1.00
15630;DHT22;7914;50.842;0.166;2022-07-18T10:29:14;31.30;1.00
15630;DHT22;7914;50.842;0.166;2022-07-18T10:31:59;31.30;1.00
15630;DHT22;7914;50.842;0.166;2022-07-18T10:34:33;31.30;1.00
15630;DHT22;7914;50.842;0.166;2022-07-18T10:39:43;30.90;1.00
15630;DHT22;7914;50.842;0.166;2022-07-18T10:42:13;30.70;1.00
15630;DHT22;7914;50.842;0.166;2022-07-18T10:44:39;30.80;1.00
15630;DHT22;7914;50.842;0.166;2022-07-18T10:47:08;30.90;1.00
15630;DHT22;7914;50.842;0.166;2022-07-18T10:57:35;31.20;1.00
15630;DHT22;7914;50.842;0.166;2022-07-18T11:03:04;31.40;1.00
15630;DHT22;7914;50.842;0.166;2022-07-18T11:05:32;32.00;1.00
15630;DHT22;7914;50.842;0.166;2022-07-18T11:15:55;31.60;1.00
15630;DHT22;7914;50.842;0.166;2022-07-18T11:18:21;31.90;1.00
15630;DHT22;7914;50.842;0.166;2022-07-18T11:20:48;32.00;1.00
15630;DHT22;7914;50.842;0.166;2022-07-18T11:23:19;32.00;1.00
15630;DHT22;7914;50.842;0.166;2022-07-18T11:25:48;32.10;1.00
15630;DHT22;7914;50.842;0.166;2022-07-18T11:28:15;31.80;1.00
15630;DHT22;7914;50.842;0.166;2022-07-18T11:30:41;31.80;1.00
15630;DHT22;7914;50.842;0.166;2022-07-18T11:33:23;32.10;1.00
15630;DHT22;7914;50.842;0.166;2022-07-18T11:35:50;32.30;1.00
15630;DHT22;7914;50.842;0.166;2022-07-18T11:38:16;32.50;1.00
15630;DHT22;7914;50.842;0.166;2022-07-18T11:40:49;32.70;1.00
15630;DHT22;7914;50.842;0.166;2022-07-18T11:43:25;32.40;1.00
15630;DHT22;7914;50.842;0.166;2022-07-18T11:46:04;32.50;1.00
15630;DHT22;7914;50.842;0.166;2022-07-18T11:48:32;32.70;1.00
15630;DHT22;7914;50.842;0.166;2022-07-18T11:50:59;32.60;1.00
15630;DHT22;7914;50.842;0.166;2022-07-18T11:53:26;32.60;1.00
15630;DHT22;7914;50.842;0.166;2022-07-18T11:55:53;32.60;1.00
15630;DHT22;7914;50.842;0.166;2022-07-18T11:58:19;32.40;1.00
15630;DHT22;7914;50.842;0.166;2022-07-18T12:00:46;32.60;1.00
15630;DHT22;7914;50.842;0.166;2022-07-18T12:03:17;32.70;1.00
15630;DHT22;7914;50.842;0.166;2022-07-18T12:05:49;32.60;1.00
15630;DHT22;7914;50.842;0.166;2022-07-18T12:08:35;32.30;1.00
15630;DHT22;7914;50.842;0.166;2022-07-18T12:11:07;32.40;1.00
15630;DHT22;7914;50.842;0.166;2022-07-18T12:16:23;32.40;1.00
15630;DHT22;7914;50.842;0.166;2022-07-18T12:18:54;32.50;1.00
15630;DHT22;7914;50.842;0.166;2022-07-18T12:21:20;32.40;1.00
15630;DHT22;7914;50.842;0.166;2022-07-18T12:23:46;32.30;1.00
15630;DHT22;7914;50.842;0.166;2022-07-18T12:26:31;32.30;1.00
15630;DHT22;7914;50.842;0.166;2022-07-18T12:29:08;32.50;1.00
15630;DHT22;7914;50.842;0.166;2022-07-18T12:31:51;32.50;1.00
15630;DHT22;7914;50.842;0.166;2022-07-18T12:34:17;32.60;1.00
15630;DHT22;7914;50.842;0.166;2022-07-18T12:36:53;32.50;1.00
15630;DHT22;7914;50.842;0.166;2022-07-18T12:39:27;32.50;1.00
15630;DHT22;7914;50.842;0.166;2022-07-18T12:41:54;32.50;1.00
15630;DHT22;7914;50.842;0.166;2022-07-18T12:44:20;32.50;1.00
15630;DHT22;7914;50.842;0.166;2022-07-18T12:46:45;32.70;1.00
15630;DHT22;7914;50.842;0.166;2022-07-18T12:49:11;32.70;1.00
15630;DHT22;7914;50.842;0.166;2022-07-18T12:51:37;32.50;1.00
15630;DHT22;7914;50.842;0.166;2022-07-18T12:54:03;32.20;1.00
15630;DHT22;7914;50.842;0.166;2022-07-18T12:56:29;31.90;1.00
15630;DHT22;7914;50.842;0.166;2022-07-18T12:58:54;31.70;1.00
15630;DHT22;7914;50.842;0.166;2022-07-18T13:01:20;31.90;1.00
15630;DHT22;7914;50.842;0.166;2022-07-18T13:03:46;32.00;1.00
15630;DHT22;7914;50.842;0.166;2022-07-18T13:06:12;32.10;1.00
15630;DHT22;7914;50.842;0.166;2022-07-18T13:08:38;32.20;1.00
15630;DHT22;7914;50.842;0.166;2022-07-18T13:11:04;32.10;1.00
15630;DHT22;7914;50.842;0.166;2022-07-18T13:13:29;32.10;1.00
15630;DHT22;7914;50.842;0.166;2022-07-18T13:15:55;32.10;1.00
15630;DHT22;7914;50.842;0.166;2022-07-18T13:18:21;32.20;1.00
15630;DHT22;7914;50.842;0.166;2022-07-18T13:20:47;32.20;1.00
15630;DHT22;7914;50.842;0.166;2022-07-18T13:23:13;32.10;1.00
15630;DHT22;7914;50.842;0.166;2022-07-18T13:25:40;32.10;1.00
15630;DHT22;7914;50.842;0.166;2022-07-18T13:28:06;32.10;1.00
15630;DHT22;7914;50.842;0.166;2022-07-18T13:30:32;32.10;1.00
15630;DHT22;7914;50.842;0.166;2022-07-18T13:32:57;32.10;1.00
15630;DHT22;7914;50.842;0.166;2022-07-18T13:35:23;32.30;1.00
15630;DHT22;7914;50.842;0.166;2022-07-18T13:37:49;32.20;1.00
15630;DHT22;7914;50.842;0.166;2022-07-18T13:40:15;32.10;1.00
15630;DHT22;7914;50.842;0.166;2022-07-18T13:42:41;32.10;1.00
15630;DHT22;7914;50.842;0.166;2022-07-18T13:45:08;32.10;1.00
15630;DHT22;7914;50.842;0.166;2022-07-18T13:47:34;32.10;1.00
15630;DHT22;7914;50.842;0.166;2022-07-18T13:49:59;32.10;1.00
15630;DHT22;7914;50.842;0.166;2022-07-18T13:52:25;32.10;1.00
15630;DHT22;7914;50.842;0.166;2022-07-18T13:54:51;32.10;1.00
15630;DHT22;7914;50.842;0.166;2022-07-18T13:57:20;32.00;1.00
15630;DHT22;7914;50.842;0.166;2022-07-18T13:59:46;32.00;1.00
15630;DHT22;7914;50.842;0.166;2022-07-18T14:02:12;32.00;1.00
15630;DHT22;7914;50.842;0.166;2022-07-18T14:04:37;31.90;1.00
15630;DHT22;7914;50.842;0.166;2022-07-18T14:07:03;31.90;1.00
15630;DHT22;7914;50.842;0.166;2022-07-18T14:09:31;31.80;1.00
15630;DHT22;7914;50.842;0.166;2022-07-18T14:11:57;31.70;1.00
15630;DHT22;7914;50.842;0.166;2022-07-18T14:14:22;31.50;1.00
15630;DHT22;7914;50.842;0.166;2022-07-18T14:16:48;31.50;1.00
15630;DHT22;7914;50.842;0.166;2022-07-18T14:19:14;31.40;1.00
15630;DHT22;7914;50.842;0.166;2022-07-18T14:21:39;31.40;1.00
15630;DHT22;7914;50.842;0.166;2022-07-18T14:24:05;31.40;1.00
15630;DHT22;7914;50.842;0.166;2022-07-18T14:26:31;31.40;1.00
15630;DHT22;7914;50.842;0.166;2022-07-18T14:28:57;31.30;1.00
15630;DHT22;7914;50.842;0.166;2022-07-18T14:31:22;31.40;1.00
15630;DHT22;7914;50.842;0.166;2022-07-18T14:33:48;31.40;1.00
15630;DHT22;7914;50.842;0.166;2022-07-18T14:36:14;31.30;1.00
15630;DHT22;7914;50.842;0.166;2022-07-18T14:38:40;31.10;1.00
15630;DHT22;7914;50.842;0.166;2022-07-18T14:41:06;30.90;1.00
15630;DHT22;7914;50.842;0.166;2022-07-18T14:43:32;30.60;1.00
15630;DHT22;7914;50.842;0.166;2022-07-18T14:45:58;30.40;1.00
15630;DHT22;7914;50.842;0.166;2022-07-18T14:48:24;30.30;1.00
15630;DHT22;7914;50.842;0.166;2022-07-18T14:50:49;30.20;1.00
15630;DHT22;7914;50.842;0.166;2022-07-18T14:53:15;30.10;1.00
15630;DHT22;7914;50.842;0.166;2022-07-18T14:55:41;30.20;1.00
15630;DHT22;7914;50.842;0.166;2022-07-18T14:58:07;30.30;1.00
15630;DHT22;7914;50.842;0.166;2022-07-18T15:00:33;30.30;1.00
15630;DHT22;7914;50.842;0.166;2022-07-18T15:02:59;30.40;1.00
15630;DHT22;7914;50.842;0.166;2022-07-18T15:05:25;30.40;1.00
15630;DHT22;7914;50.842;0.166;2022-07-18T15:07:51;30.50;1.00
15630;DHT22;7914;50.842;0.166;2022-07-18T15:10:16;30.60;1.00
15630;DHT22;7914;50.842;0.166;2022-07-18T15:12:42;30.60;1.00
15630;DHT22;7914;50.842;0.166;2022-07-18T15:15:08;30.70;1.00
15630;DHT22;7914;50.842;0.166;2022-07-18T15:17:34;30.80;1.00
15630;DHT22;7914;50.842;0.166;2022-07-18T15:20:00;30.70;1.00
15630;DHT22;7914;50.842;0.166;2022-07-18T15:22:26;30.50;1.00
15630;DHT22;7914;50.842;0.166;2022-07-18T15:24:52;30.40;1.00
15630;DHT22;7914;50.842;0.166;2022-07-18T15:27:18;30.50;1.00
15630;DHT22;7914;50.842;0.166;2022-07-18T15:29:44;30.50;1.00
15630;DHT22;7914;50.842;0.166;2022-07-18T15:32:09;30.40;1.00
15630;DHT22;7914;50.842;0.166;2022-07-18T15:34:39;30.50;1.00
15630;DHT22;7914;50.842;0.166;2022-07-18T15:37:05;30.50;1.00
15630;DHT22;7914;50.842;0.166;2022-07-18T15:39:31;30.50;1.00
15630;DHT22;7914;50.842;0.166;2022-07-18T15:41:58;30.60;1.00
15630;DHT22;7914;50.842;0.166;2022-07-18T15:44:24;30.50;1.00
15630;DHT22;7914;50.842;0.166;2022-07-18T15:46:51;30.60;1.00
15630;DHT22;7914;50.842;0.166;2022-07-18T15:49:17;30.70;1.00
15630;DHT22;7914;50.842;0.166;2022-07-18T15:51:43;30.70;1.00
15630;DHT22;7914;50.842;0.166;2022-07-18T15:54:12;30.70;1.00
15630;DHT22;7914;50.842;0.166;2022-07-18T15:56:39;30.70;1.00
15630;DHT22;7914;50.842;0.166;2022-07-18T15:59:05;30.70;1.00
15630;DHT22;7914;50.842;0.166;2022-07-18T16:01:30;30.80;1.00
15630;DHT22;7914;50.842;0.166;2022-07-18T16:03:57;30.80;1.00
15630;DHT22;7914;50.842;0.166;2022-07-18T16:06:23;30.90;1.00
15630;DHT22;7914;50.842;0.166;2022-07-18T16:08:49;30.90;1.00
15630;DHT22;7914;50.842;0.166;2022-07-18T16:11:14;30.90;1.00
15630;DHT22;7914;50.842;0.166;2022-07-18T16:13:40;30.90;1.00
15630;DHT22;7914;50.842;0.166;2022-07-18T16:16:06;30.90;1.00
15630;DHT22;7914;50.842;0.166;2022-07-18T16:18:32;30.90;1.00
15630;DHT22;7914;50.842;0.166;2022-07-18T16:20:58;30.90;1.00
15630;DHT22;7914;50.842;0.166;2022-07-18T16:23:23;30.90;1.00
15630;DHT22;7914;50.842;0.166;2022-07-18T16:25:49;30.90;1.00
15630;DHT22;7914;50.842;0.166;2022-07-18T16:28:15;30.90;1.00
15630;DHT22;7914;50.842;0.166;2022-07-18T16:30:41;31.00;1.00
15630;DHT22;7914;50.842;0.166;2022-07-18T16:33:07;31.00;1.00